Detall de PIREP

Printer-friendly versionPDF version

[2014/09/25 09:52:00]
Flight IATA:CT3119
Pilot Number:042
Company ICAO:CAT
Aircraft Type:B463/A
PAX:18
Aircraft Registration:PAX
Departing Airport: LFMP
Destination Airport: LEPA
Alternate Airport:LEBL
Online: VATSIM
Route:BGR G7 LANDA P84 LORES
Flight Level:F190
No Slew and time accel
No pause
Crash detect
Detect pilot in Cockpit between each 30 and 45 minutes
09:52 Zero fuel Weight: 80444 Lbs, Fuel Weight: 22729 Lbs
09:52 VATSIM:LFMP 250930Z 32016KT 300V360 CAVOK 20/07 Q1021 NOSIG
09:52 VATSIM:LEPA 250930Z 05010KT 8000 FEW024 21/17 Q1019 NOSIG
10:13 Parking Brakes off
10:26 Take-off
10:26 Take off Weight: 102139 Lbs
10:26 Wind: 320º @ 014 Knots Heading: 326º
10:26 POS N42º 45´ 00´´ E002º 51´ 53´´
10:27 Gear Up: 130 Knots
10:27 Flaps:1 at 130 Knots
10:27 Flaps:0 at 150 Knots
10:39 TOC
10:39 Fuel Weight: 19710 Lb
10:42 Wind:319º@013 Knots Heading: 234º Ground Speed: 342 Knots Altitude 19206 ft
10:57 Wind:319º@013 Knots Heading: 183º Ground Speed: 351 Knots Altitude 19169 ft
11:00 TOD
11:00 Fuel Weight: 18159 Lb
11:09 Flaps:1 at 232 Knots
11:11 Flaps:2 at 200 Knots
11:12 Wind:031º@009 Knots Heading: 147º Ground Speed: 185 Knots Altitude 3205 ft
11:13 Gear Down: 161 Knots
11:13 Flaps:3 at 161 Knots
11:14 Flaps:4 at 151 Knots
11:17 TouchDown:Rate -71 ft/min Speed: 117 Knots
11:17 VATSIM:LEPA 251100Z 06019KT 020V090 9999 FEW028 23/15 Q1019 NOSIG
11:17 Land
11:17 Wind:067º@019 Knots
11:17 Heading: 059º
11:17 Flight Duration: 00:50
11:17 Landing Weight: 97809 Lbs
11:17 POS N39º 33´ 16´´ E002º 43´ 37´´
11:23 Parking brakes on
11:23 Block to Block Duration: 01:10
11:23 Final Fuel: 16787 Lbls
11:23 Spent Fuel: 5941 Lbls
11:23 Flight Length: 244 NM
11:23 TOD Land Length: 64 NM

Exportar CSV

Powered by Drupal - Modified by Danger4k